Rawsonville, Michigan
Current Conditions -  °F | °C
As of 8:53 AM on Friday 28 Nov 2014 (Local Time) from KYIP Reporting Station
Overcast Overcast  
Wind Chill: 14°   Ceiling: 3700
Heat Index: 22°   Visibility: 10mi
Dew Point: 11°   Wind: 6mph
Humidity: 63%   Direction: 170°S
Pressure: 30.34"   Gusts: NA
Location:  42.1967°N, 83.6251°W
Report Text: KYIP 281353Z 17005KT 10SM OVC037 M06/M12 A3034 RMK AO2 SLP280 T10561117
Loading
Personal Weather Stations






























Interactive Weather Map New forecast layout! Learn more

10-Day Weather Forecast

Advertisements
Track Severe Weather on mobile